sensor_id;sensor_type;location;lat;lon;timestamp;temperature;humidity
83650;DHT22;73612;50.948;6.956;2024-02-26T00:01:33;7.90;99.90
83650;DHT22;73612;50.948;6.956;2024-02-26T00:03:59;7.90;99.90
83650;DHT22;73612;50.948;6.956;2024-02-26T00:06:26;7.90;99.90
83650;DHT22;73612;50.948;6.956;2024-02-26T00:08:52;7.90;99.90
83650;DHT22;73612;50.948;6.956;2024-02-26T00:11:19;7.80;99.90
83650;DHT22;73612;50.948;6.956;2024-02-26T00:13:46;7.80;99.90
83650;DHT22;73612;50.948;6.956;2024-02-26T00:16:13;7.80;99.90
83650;DHT22;73612;50.948;6.956;2024-02-26T00:18:40;7.70;99.90
83650;DHT22;73612;50.948;6.956;2024-02-26T00:21:06;7.70;99.90
83650;DHT22;73612;50.948;6.956;2024-02-26T00:23:33;7.60;99.90
83650;DHT22;73612;50.948;6.956;2024-02-26T00:25:59;7.70;99.90
83650;DHT22;73612;50.948;6.956;2024-02-26T00:28:26;7.70;99.90
83650;DHT22;73612;50.948;6.956;2024-02-26T00:30:53;7.70;99.90
83650;DHT22;73612;50.948;6.956;2024-02-26T00:33:19;7.70;99.90
83650;DHT22;73612;50.948;6.956;2024-02-26T00:35:46;7.70;99.90
83650;DHT22;73612;50.948;6.956;2024-02-26T00:38:13;7.70;99.90
83650;DHT22;73612;50.948;6.956;2024-02-26T00:40:39;7.70;99.90
83650;DHT22;73612;50.948;6.956;2024-02-26T00:43:06;7.70;99.90
83650;DHT22;73612;50.948;6.956;2024-02-26T00:45:33;7.70;99.90
83650;DHT22;73612;50.948;6.956;2024-02-26T00:47:59;7.70;99.90
83650;DHT22;73612;50.948;6.956;2024-02-26T00:50:28;7.70;99.90
83650;DHT22;73612;50.948;6.956;2024-02-26T00:52:54;7.70;99.90
83650;DHT22;73612;50.948;6.956;2024-02-26T00:55:21;7.70;99.90
83650;DHT22;73612;50.948;6.956;2024-02-26T00:57:47;7.60;99.90
83650;DHT22;73612;50.948;6.956;2024-02-26T01:00:14;7.70;99.90
83650;DHT22;73612;50.948;6.956;2024-02-26T01:02:41;7.60;99.90
83650;DHT22;73612;50.948;6.956;2024-02-26T01:05:08;7.60;99.90
83650;DHT22;73612;50.948;6.956;2024-02-26T01:07:35;7.60;99.90
83650;DHT22;73612;50.948;6.956;2024-02-26T01:10:02;7.60;99.90
83650;DHT22;73612;50.948;6.956;2024-02-26T01:12:29;7.50;99.90
83650;DHT22;73612;50.948;6.956;2024-02-26T01:14:55;7.50;99.90
83650;DHT22;73612;50.948;6.956;2024-02-26T01:17:22;7.50;99.90
83650;DHT22;73612;50.948;6.956;2024-02-26T01:19:48;7.40;99.90
83650;DHT22;73612;50.948;6.956;2024-02-26T01:22:15;7.40;99.90
83650;DHT22;73612;50.948;6.956;2024-02-26T01:24:41;7.40;99.90
83650;DHT22;73612;50.948;6.956;2024-02-26T01:27:08;7.40;99.90
83650;DHT22;73612;50.948;6.956;2024-02-26T01:29:35;7.40;99.90
83650;DHT22;73612;50.948;6.956;2024-02-26T01:32:02;7.40;99.90
83650;DHT22;73612;50.948;6.956;2024-02-26T01:34:29;7.40;99.90
83650;DHT22;73612;50.948;6.956;2024-02-26T01:36:55;7.40;99.90
83650;DHT22;73612;50.948;6.956;2024-02-26T01:39:22;7.40;99.90
83650;DHT22;73612;50.948;6.956;2024-02-26T01:41:49;7.40;99.90
83650;DHT22;73612;50.948;6.956;2024-02-26T01:44:15;7.30;99.90
83650;DHT22;73612;50.948;6.956;2024-02-26T01:46:42;7.30;99.90
83650;DHT22;73612;50.948;6.956;2024-02-26T01:49:08;7.30;99.90
83650;DHT22;73612;50.948;6.956;2024-02-26T01:51:35;7.30;99.90
83650;DHT22;73612;50.948;6.956;2024-02-26T01:54:02;7.30;99.90
83650;DHT22;73612;50.948;6.956;2024-02-26T01:56:28;7.30;99.90
83650;DHT22;73612;50.948;6.956;2024-02-26T01:58:56;7.30;99.90
83650;DHT22;73612;50.948;6.956;2024-02-26T02:01:22;7.30;99.90
83650;DHT22;73612;50.948;6.956;2024-02-26T02:03:50;7.20;99.90
83650;DHT22;73612;50.948;6.956;2024-02-26T02:06:16;7.20;99.90
83650;DHT22;73612;50.948;6.956;2024-02-26T02:08:43;7.20;99.90
83650;DHT22;73612;50.948;6.956;2024-02-26T02:11:10;7.20;99.90
83650;DHT22;73612;50.948;6.956;2024-02-26T02:13:37;7.20;99.90
83650;DHT22;73612;50.948;6.956;2024-02-26T02:16:04;7.10;99.90
83650;DHT22;73612;50.948;6.956;2024-02-26T02:18:31;7.10;99.90
83650;DHT22;73612;50.948;6.956;2024-02-26T02:20:59;7.20;99.90
83650;DHT22;73612;50.948;6.956;2024-02-26T02:23:24;7.20;99.90
83650;DHT22;73612;50.948;6.956;2024-02-26T02:25:51;7.20;99.90
83650;DHT22;73612;50.948;6.956;2024-02-26T02:28:17;7.20;99.90
83650;DHT22;73612;50.948;6.956;2024-02-26T02:30:44;7.20;99.90
83650;DHT22;73612;50.948;6.956;2024-02-26T02:33:10;7.20;99.90
83650;DHT22;73612;50.948;6.956;2024-02-26T02:35:37;7.20;99.90
83650;DHT22;73612;50.948;6.956;2024-02-26T02:38:04;7.20;99.90
83650;DHT22;73612;50.948;6.956;2024-02-26T02:40:31;7.20;99.90
83650;DHT22;73612;50.948;6.956;2024-02-26T02:42:57;7.20;99.90
83650;DHT22;73612;50.948;6.956;2024-02-26T02:45:24;7.20;99.90
83650;DHT22;73612;50.948;6.956;2024-02-26T02:47:51;7.20;99.90
83650;DHT22;73612;50.948;6.956;2024-02-26T02:50:19;7.20;99.90
83650;DHT22;73612;50.948;6.956;2024-02-26T02:52:46;7.20;99.90
83650;DHT22;73612;50.948;6.956;2024-02-26T02:55:13;7.20;99.90
83650;DHT22;73612;50.948;6.956;2024-02-26T02:57:39;7.10;99.90
83650;DHT22;73612;50.948;6.956;2024-02-26T03:00:08;7.10;99.90
83650;DHT22;73612;50.948;6.956;2024-02-26T03:02:35;7.10;99.90
83650;DHT22;73612;50.948;6.956;2024-02-26T03:05:04;7.10;99.90
83650;DHT22;73612;50.948;6.956;2024-02-26T03:07:30;7.10;99.90
83650;DHT22;73612;50.948;6.956;2024-02-26T03:09:57;7.10;99.90
83650;DHT22;73612;50.948;6.956;2024-02-26T03:12:24;7.10;99.90
83650;DHT22;73612;50.948;6.956;2024-02-26T03:14:50;7.10;99.90
83650;DHT22;73612;50.948;6.956;2024-02-26T03:17:17;7.10;99.90
83650;DHT22;73612;50.948;6.956;2024-02-26T03:19:44;7.10;99.90
83650;DHT22;73612;50.948;6.956;2024-02-26T03:22:13;7.20;99.90
83650;DHT22;73612;50.948;6.956;2024-02-26T03:24:40;7.10;99.90
83650;DHT22;73612;50.948;6.956;2024-02-26T03:27:06;7.10;99.90
83650;DHT22;73612;50.948;6.956;2024-02-26T03:29:33;7.10;99.90
83650;DHT22;73612;50.948;6.956;2024-02-26T03:31:59;7.10;99.90
83650;DHT22;73612;50.948;6.956;2024-02-26T03:34:27;7.10;99.90
83650;DHT22;73612;50.948;6.956;2024-02-26T03:36:53;7.10;99.90
83650;DHT22;73612;50.948;6.956;2024-02-26T03:39:19;7.10;99.90
83650;DHT22;73612;50.948;6.956;2024-02-26T03:41:46;7.00;99.90
83650;DHT22;73612;50.948;6.956;2024-02-26T03:44:12;7.10;99.90
83650;DHT22;73612;50.948;6.956;2024-02-26T03:46:40;7.00;99.90
83650;DHT22;73612;50.948;6.956;2024-02-26T03:49:06;7.10;99.90
83650;DHT22;73612;50.948;6.956;2024-02-26T03:51:33;7.10;99.90
83650;DHT22;73612;50.948;6.956;2024-02-26T03:54:00;7.00;99.90
83650;DHT22;73612;50.948;6.956;2024-02-26T03:56:26;7.00;99.90
83650;DHT22;73612;50.948;6.956;2024-02-26T03:58:53;7.00;99.90
83650;DHT22;73612;50.948;6.956;2024-02-26T04:01:19;7.00;99.90
83650;DHT22;73612;50.948;6.956;2024-02-26T04:03:46;7.00;99.90
83650;DHT22;73612;50.948;6.956;2024-02-26T04:06:13;6.90;99.90
83650;DHT22;73612;50.948;6.956;2024-02-26T04:08:41;7.00;99.90
83650;DHT22;73612;50.948;6.956;2024-02-26T04:11:07;7.00;99.90
83650;DHT22;73612;50.948;6.956;2024-02-26T04:13:34;7.00;99.90
83650;DHT22;73612;50.948;6.956;2024-02-26T04:16:01;7.00;99.90
83650;DHT22;73612;50.948;6.956;2024-02-26T04:18:27;6.90;99.90
83650;DHT22;73612;50.948;6.956;2024-02-26T04:20:54;7.00;99.90
83650;DHT22;73612;50.948;6.956;2024-02-26T04:23:21;6.90;99.90
83650;DHT22;73612;50.948;6.956;2024-02-26T04:25:47;7.00;99.90
83650;DHT22;73612;50.948;6.956;2024-02-26T04:28:14;7.00;99.90
83650;DHT22;73612;50.948;6.956;2024-02-26T04:30:41;6.90;99.90
83650;DHT22;73612;50.948;6.956;2024-02-26T04:33:07;6.90;99.90
83650;DHT22;73612;50.948;6.956;2024-02-26T04:35:34;6.90;99.90
83650;DHT22;73612;50.948;6.956;2024-02-26T04:38:01;6.90;99.90
83650;DHT22;73612;50.948;6.956;2024-02-26T04:40:27;6.90;99.90
83650;DHT22;73612;50.948;6.956;2024-02-26T04:42:54;6.90;99.90
83650;DHT22;73612;50.948;6.956;2024-02-26T04:45:20;6.90;99.90
83650;DHT22;73612;50.948;6.956;2024-02-26T04:47:47;6.80;99.90
83650;DHT22;73612;50.948;6.956;2024-02-26T04:50:14;6.90;99.90
83650;DHT22;73612;50.948;6.956;2024-02-26T04:52:40;6.90;99.90
83650;DHT22;73612;50.948;6.956;2024-02-26T04:55:07;6.90;99.90
83650;DHT22;73612;50.948;6.956;2024-02-26T04:57:34;6.90;99.90
83650;DHT22;73612;50.948;6.956;2024-02-26T05:00:00;6.90;99.90
83650;DHT22;73612;50.948;6.956;2024-02-26T05:02:27;6.80;99.90
83650;DHT22;73612;50.948;6.956;2024-02-26T05:04:54;6.80;99.90
83650;DHT22;73612;50.948;6.956;2024-02-26T05:07:20;6.80;99.90
83650;DHT22;73612;50.948;6.956;2024-02-26T05:09:48;6.80;99.90
83650;DHT22;73612;50.948;6.956;2024-02-26T05:12:14;6.80;99.90
83650;DHT22;73612;50.948;6.956;2024-02-26T05:14:41;6.80;99.90
83650;DHT22;73612;50.948;6.956;2024-02-26T05:17:08;6.90;99.90
83650;DHT22;73612;50.948;6.956;2024-02-26T05:19:34;6.80;99.90
83650;DHT22;73612;50.948;6.956;2024-02-26T05:22:01;6.80;99.90
83650;DHT22;73612;50.948;6.956;2024-02-26T05:24:27;6.80;99.90
83650;DHT22;73612;50.948;6.956;2024-02-26T05:26:54;6.80;99.90
83650;DHT22;73612;50.948;6.956;2024-02-26T05:29:21;6.80;99.90
83650;DHT22;73612;50.948;6.956;2024-02-26T05:31:47;6.80;99.90
83650;DHT22;73612;50.948;6.956;2024-02-26T05:34:15;6.70;99.90
83650;DHT22;73612;50.948;6.956;2024-02-26T05:36:41;6.70;99.90
83650;DHT22;73612;50.948;6.956;2024-02-26T05:39:08;6.70;99.90
83650;DHT22;73612;50.948;6.956;2024-02-26T05:41:35;6.70;99.90
83650;DHT22;73612;50.948;6.956;2024-02-26T05:44:01;6.70;99.90
83650;DHT22;73612;50.948;6.956;2024-02-26T05:46:28;6.70;99.90
83650;DHT22;73612;50.948;6.956;2024-02-26T05:48:54;6.60;99.90
83650;DHT22;73612;50.948;6.956;2024-02-26T05:51:21;6.70;99.90
83650;DHT22;73612;50.948;6.956;2024-02-26T05:53:48;6.60;99.90
83650;DHT22;73612;50.948;6.956;2024-02-26T05:56:14;6.70;99.90
83650;DHT22;73612;50.948;6.956;2024-02-26T05:58:41;6.60;99.90
83650;DHT22;73612;50.948;6.956;2024-02-26T06:01:09;6.70;99.90
83650;DHT22;73612;50.948;6.956;2024-02-26T06:03:35;6.60;99.90
83650;DHT22;73612;50.948;6.956;2024-02-26T06:06:01;6.60;99.90
83650;DHT22;73612;50.948;6.956;2024-02-26T06:08:28;6.60;99.90
83650;DHT22;73612;50.948;6.956;2024-02-26T06:10:55;6.70;99.90
83650;DHT22;73612;50.948;6.956;2024-02-26T06:13:21;6.70;99.90
83650;DHT22;73612;50.948;6.956;2024-02-26T06:15:48;6.60;99.90
83650;DHT22;73612;50.948;6.956;2024-02-26T06:18:15;6.60;99.90
83650;DHT22;73612;50.948;6.956;2024-02-26T06:20:41;6.70;99.90
83650;DHT22;73612;50.948;6.956;2024-02-26T06:23:08;6.70;99.90
83650;DHT22;73612;50.948;6.956;2024-02-26T06:25:35;6.70;99.90
83650;DHT22;73612;50.948;6.956;2024-02-26T06:28:01;6.70;99.90
83650;DHT22;73612;50.948;6.956;2024-02-26T06:30:28;6.70;99.90
83650;DHT22;73612;50.948;6.956;2024-02-26T06:32:54;6.80;99.90
83650;DHT22;73612;50.948;6.956;2024-02-26T06:35:21;6.80;99.90
83650;DHT22;73612;50.948;6.956;2024-02-26T06:37:48;6.70;99.90
83650;DHT22;73612;50.948;6.956;2024-02-26T06:40:15;6.70;99.90
83650;DHT22;73612;50.948;6.956;2024-02-26T06:42:41;6.70;99.90
83650;DHT22;73612;50.948;6.956;2024-02-26T06:45:09;6.70;99.90
83650;DHT22;73612;50.948;6.956;2024-02-26T06:47:36;6.70;99.90
83650;DHT22;73612;50.948;6.956;2024-02-26T06:50:03;6.70;99.90
83650;DHT22;73612;50.948;6.956;2024-02-26T06:52:29;6.70;99.90
83650;DHT22;73612;50.948;6.956;2024-02-26T06:54:57;6.70;99.90
83650;DHT22;73612;50.948;6.956;2024-02-26T06:57:24;6.70;99.90
83650;DHT22;73612;50.948;6.956;2024-02-26T06:59:51;6.70;99.90
83650;DHT22;73612;50.948;6.956;2024-02-26T07:02:17;6.70;99.90
83650;DHT22;73612;50.948;6.956;2024-02-26T07:04:44;6.70;99.90
83650;DHT22;73612;50.948;6.956;2024-02-26T07:07:11;6.70;99.90
83650;DHT22;73612;50.948;6.956;2024-02-26T07:09:37;6.70;99.90
83650;DHT22;73612;50.948;6.956;2024-02-26T07:12:04;6.70;99.90
83650;DHT22;73612;50.948;6.956;2024-02-26T07:14:31;6.70;99.90
83650;DHT22;73612;50.948;6.956;2024-02-26T07:16:58;6.70;99.90
83650;DHT22;73612;50.948;6.956;2024-02-26T07:19:24;6.70;99.90
83650;DHT22;73612;50.948;6.956;2024-02-26T07:21:51;6.70;99.90
83650;DHT22;73612;50.948;6.956;2024-02-26T07:24:18;6.70;99.90
83650;DHT22;73612;50.948;6.956;2024-02-26T07:26:44;6.70;99.90
83650;DHT22;73612;50.948;6.956;2024-02-26T07:29:11;6.70;99.90
83650;DHT22;73612;50.948;6.956;2024-02-26T07:31:37;6.70;99.90
83650;DHT22;73612;50.948;6.956;2024-02-26T07:34:04;6.70;99.90
83650;DHT22;73612;50.948;6.956;2024-02-26T07:36:31;6.70;99.90
83650;DHT22;73612;50.948;6.956;2024-02-26T07:38:58;6.70;99.90
83650;DHT22;73612;50.948;6.956;2024-02-26T07:41:24;6.70;99.90
83650;DHT22;73612;50.948;6.956;2024-02-26T07:43:51;6.70;99.90
83650;DHT22;73612;50.948;6.956;2024-02-26T07:46:18;6.70;99.90
83650;DHT22;73612;50.948;6.956;2024-02-26T07:48:46;6.70;99.90
83650;DHT22;73612;50.948;6.956;2024-02-26T07:51:12;6.70;99.90
83650;DHT22;73612;50.948;6.956;2024-02-26T07:53:39;6.70;99.90
83650;DHT22;73612;50.948;6.956;2024-02-26T07:56:06;6.70;99.90
83650;DHT22;73612;50.948;6.956;2024-02-26T07:58:32;6.70;99.90
83650;DHT22;73612;50.948;6.956;2024-02-26T08:00:59;6.70;99.90
83650;DHT22;73612;50.948;6.956;2024-02-26T08:03:26;6.70;99.90
83650;DHT22;73612;50.948;6.956;2024-02-26T08:05:53;6.70;99.90
83650;DHT22;73612;50.948;6.956;2024-02-26T08:08:19;6.80;99.90
83650;DHT22;73612;50.948;6.956;2024-02-26T08:10:47;6.70;99.90
83650;DHT22;73612;50.948;6.956;2024-02-26T08:13:13;6.70;99.90
83650;DHT22;73612;50.948;6.956;2024-02-26T08:15:40;6.70;99.90
83650;DHT22;73612;50.948;6.956;2024-02-26T08:18:06;6.70;99.90
83650;DHT22;73612;50.948;6.956;2024-02-26T08:20:33;6.70;99.90
83650;DHT22;73612;50.948;6.956;2024-02-26T08:23:00;6.80;99.90
83650;DHT22;73612;50.948;6.956;2024-02-26T08:25:26;6.80;99.90
83650;DHT22;73612;50.948;6.956;2024-02-26T08:27:53;6.80;99.90
83650;DHT22;73612;50.948;6.956;2024-02-26T08:30:19;6.80;99.90
83650;DHT22;73612;50.948;6.956;2024-02-26T08:32:47;6.80;99.90
83650;DHT22;73612;50.948;6.956;2024-02-26T08:35:13;6.80;99.90
83650;DHT22;73612;50.948;6.956;2024-02-26T08:37:39;6.80;99.90
83650;DHT22;73612;50.948;6.956;2024-02-26T08:40:06;6.80;99.90
83650;DHT22;73612;50.948;6.956;2024-02-26T08:42:33;6.80;99.90
83650;DHT22;73612;50.948;6.956;2024-02-26T08:45:00;6.80;99.90
83650;DHT22;73612;50.948;6.956;2024-02-26T08:47:26;6.80;99.90
83650;DHT22;73612;50.948;6.956;2024-02-26T08:49:53;6.90;99.90
83650;DHT22;73612;50.948;6.956;2024-02-26T08:52:19;6.80;99.90
83650;DHT22;73612;50.948;6.956;2024-02-26T08:54:46;6.90;99.90
83650;DHT22;73612;50.948;6.956;2024-02-26T08:57:13;6.80;99.90
83650;DHT22;73612;50.948;6.956;2024-02-26T08:59:41;6.80;99.90
83650;DHT22;73612;50.948;6.956;2024-02-26T09:02:08;6.90;99.90
83650;DHT22;73612;50.948;6.956;2024-02-26T09:13:23;6.90;99.90
83650;DHT22;73612;50.948;6.956;2024-02-26T09:15:56;7.00;99.90
83650;DHT22;73612;50.948;6.956;2024-02-26T09:18:23;7.00;99.90
83650;DHT22;73612;50.948;6.956;2024-02-26T09:20:50;6.90;99.90
83650;DHT22;73612;50.948;6.956;2024-02-26T09:23:17;6.90;99.90
83650;DHT22;73612;50.948;6.956;2024-02-26T09:25:43;6.90;99.90
83650;DHT22;73612;50.948;6.956;2024-02-26T09:28:10;6.90;99.90
83650;DHT22;73612;50.948;6.956;2024-02-26T09:30:37;6.90;99.90
83650;DHT22;73612;50.948;6.956;2024-02-26T09:33:04;6.90;99.90
83650;DHT22;73612;50.948;6.956;2024-02-26T09:35:30;6.90;99.90
83650;DHT22;73612;50.948;6.956;2024-02-26T09:37:57;6.90;99.90
83650;DHT22;73612;50.948;6.956;2024-02-26T09:40:23;6.80;99.90
83650;DHT22;73612;50.948;6.956;2024-02-26T09:42:50;6.80;99.90
83650;DHT22;73612;50.948;6.956;2024-02-26T09:45:18;6.80;99.90
83650;DHT22;73612;50.948;6.956;2024-02-26T09:47:44;6.90;99.90
83650;DHT22;73612;50.948;6.956;2024-02-26T09:50:11;6.90;99.90
83650;DHT22;73612;50.948;6.956;2024-02-26T09:52:37;6.90;99.90
83650;DHT22;73612;50.948;6.956;2024-02-26T09:55:04;6.90;99.90
83650;DHT22;73612;50.948;6.956;2024-02-26T09:57:32;6.90;99.90
83650;DHT22;73612;50.948;6.956;2024-02-26T09:59:59;6.90;99.90
83650;DHT22;73612;50.948;6.956;2024-02-26T10:02:26;6.90;99.90
83650;DHT22;73612;50.948;6.956;2024-02-26T10:04:52;7.00;99.90
83650;DHT22;73612;50.948;6.956;2024-02-26T10:07:19;7.00;99.90
83650;DHT22;73612;50.948;6.956;2024-02-26T10:09:45;7.00;99.90
83650;DHT22;73612;50.948;6.956;2024-02-26T10:12:12;7.00;99.90
83650;DHT22;73612;50.948;6.956;2024-02-26T10:14:39;7.00;99.90
83650;DHT22;73612;50.948;6.956;2024-02-26T10:17:07;7.00;99.90
83650;DHT22;73612;50.948;6.956;2024-02-26T10:19:34;7.00;99.90
83650;DHT22;73612;50.948;6.956;2024-02-26T10:22:01;7.00;99.90
83650;DHT22;73612;50.948;6.956;2024-02-26T10:24:28;7.00;99.90
83650;DHT22;73612;50.948;6.956;2024-02-26T10:26:54;7.10;99.90
83650;DHT22;73612;50.948;6.956;2024-02-26T10:29:21;7.20;99.90
83650;DHT22;73612;50.948;6.956;2024-02-26T10:31:47;7.20;99.90
83650;DHT22;73612;50.948;6.956;2024-02-26T10:34:15;7.30;99.90
83650;DHT22;73612;50.948;6.956;2024-02-26T10:36:41;7.30;99.90
83650;DHT22;73612;50.948;6.956;2024-02-26T10:39:08;7.40;99.90
83650;DHT22;73612;50.948;6.956;2024-02-26T10:41:34;7.50;99.90
83650;DHT22;73612;50.948;6.956;2024-02-26T10:44:02;7.60;99.90
83650;DHT22;73612;50.948;6.956;2024-02-26T10:46:29;7.60;99.90
83650;DHT22;73612;50.948;6.956;2024-02-26T10:48:56;7.80;99.90
83650;DHT22;73612;50.948;6.956;2024-02-26T10:51:27;7.80;99.90
83650;DHT22;73612;50.948;6.956;2024-02-26T10:53:56;7.90;99.90
83650;DHT22;73612;50.948;6.956;2024-02-26T10:56:25;7.90;99.90
83650;DHT22;73612;50.948;6.956;2024-02-26T10:58:52;7.90;99.90
83650;DHT22;73612;50.948;6.956;2024-02-26T11:01:18;8.00;99.90
83650;DHT22;73612;50.948;6.956;2024-02-26T11:03:45;8.00;99.90
83650;DHT22;73612;50.948;6.956;2024-02-26T11:06:12;8.00;99.90
83650;DHT22;73612;50.948;6.956;2024-02-26T11:08:38;8.00;99.90
83650;DHT22;73612;50.948;6.956;2024-02-26T11:11:05;8.00;99.90
83650;DHT22;73612;50.948;6.956;2024-02-26T11:13:31;8.10;99.90
83650;DHT22;73612;50.948;6.956;2024-02-26T11:15:58;8.20;99.90
83650;DHT22;73612;50.948;6.956;2024-02-26T11:18:26;8.20;99.90
83650;DHT22;73612;50.948;6.956;2024-02-26T11:20:51;8.30;99.90
83650;DHT22;73612;50.948;6.956;2024-02-26T11:23:18;8.30;99.90
83650;DHT22;73612;50.948;6.956;2024-02-26T11:25:44;8.20;99.90
83650;DHT22;73612;50.948;6.956;2024-02-26T11:28:13;8.20;99.90
83650;DHT22;73612;50.948;6.956;2024-02-26T11:30:39;8.20;99.90
83650;DHT22;73612;50.948;6.956;2024-02-26T11:33:07;8.30;99.90
83650;DHT22;73612;50.948;6.956;2024-02-26T11:35:33;8.30;99.90
83650;DHT22;73612;50.948;6.956;2024-02-26T11:38:00;8.30;99.90
83650;DHT22;73612;50.948;6.956;2024-02-26T11:40:27;8.20;99.90
83650;DHT22;73612;50.948;6.956;2024-02-26T11:42:54;8.30;99.90
83650;DHT22;73612;50.948;6.956;2024-02-26T11:47:58;8.40;99.90
83650;DHT22;73612;50.948;6.956;2024-02-26T11:50:34;8.30;99.90
83650;DHT22;73612;50.948;6.956;2024-02-26T11:55:39;8.20;99.90
83650;DHT22;73612;50.948;6.956;2024-02-26T11:58:06;8.10;99.90
83650;DHT22;73612;50.948;6.956;2024-02-26T12:00:32;8.20;99.90
83650;DHT22;73612;50.948;6.956;2024-02-26T12:02:59;8.20;99.90
83650;DHT22;73612;50.948;6.956;2024-02-26T12:05:27;8.40;99.90
83650;DHT22;73612;50.948;6.956;2024-02-26T12:07:53;8.40;99.90
83650;DHT22;73612;50.948;6.956;2024-02-26T12:10:26;8.50;99.90
83650;DHT22;73612;50.948;6.956;2024-02-26T12:12:53;8.50;99.90
83650;DHT22;73612;50.948;6.956;2024-02-26T12:15:19;8.40;99.90
83650;DHT22;73612;50.948;6.956;2024-02-26T12:17:48;8.50;99.90
83650;DHT22;73612;50.948;6.956;2024-02-26T12:20:14;8.50;99.90
83650;DHT22;73612;50.948;6.956;2024-02-26T12:22:42;8.60;99.90
83650;DHT22;73612;50.948;6.956;2024-02-26T12:25:09;8.60;99.90
83650;DHT22;73612;50.948;6.956;2024-02-26T12:27:35;8.70;99.90
83650;DHT22;73612;50.948;6.956;2024-02-26T12:30:03;8.50;99.90
83650;DHT22;73612;50.948;6.956;2024-02-26T12:32:29;8.40;99.90
83650;DHT22;73612;50.948;6.956;2024-02-26T12:34:56;8.40;99.90
83650;DHT22;73612;50.948;6.956;2024-02-26T12:37:22;8.40;99.90
83650;DHT22;73612;50.948;6.956;2024-02-26T12:39:49;8.50;99.90
83650;DHT22;73612;50.948;6.956;2024-02-26T12:42:17;8.40;99.90
83650;DHT22;73612;50.948;6.956;2024-02-26T12:44:45;8.40;99.90
83650;DHT22;73612;50.948;6.956;2024-02-26T12:47:10;8.30;99.90
83650;DHT22;73612;50.948;6.956;2024-02-26T12:49:37;8.30;99.90
83650;DHT22;73612;50.948;6.956;2024-02-26T12:52:04;8.30;99.90
83650;DHT22;73612;50.948;6.956;2024-02-26T12:54:30;8.30;99.90
83650;DHT22;73612;50.948;6.956;2024-02-26T12:56:57;8.30;99.90
83650;DHT22;73612;50.948;6.956;2024-02-26T12:59:24;8.30;99.90
83650;DHT22;73612;50.948;6.956;2024-02-26T13:01:50;8.50;99.90
83650;DHT22;73612;50.948;6.956;2024-02-26T13:04:17;8.40;99.90
83650;DHT22;73612;50.948;6.956;2024-02-26T13:06:43;8.50;99.90
83650;DHT22;73612;50.948;6.956;2024-02-26T13:09:13;8.50;99.90
83650;DHT22;73612;50.948;6.956;2024-02-26T13:11:39;8.50;99.90
83650;DHT22;73612;50.948;6.956;2024-02-26T13:14:06;8.60;99.90
83650;DHT22;73612;50.948;6.956;2024-02-26T13:16:32;8.60;99.90
83650;DHT22;73612;50.948;6.956;2024-02-26T13:19:09;8.50;99.90
83650;DHT22;73612;50.948;6.956;2024-02-26T13:21:35;8.50;99.90
83650;DHT22;73612;50.948;6.956;2024-02-26T13:24:01;8.50;99.90
83650;DHT22;73612;50.948;6.956;2024-02-26T13:26:28;8.40;99.90
83650;DHT22;73612;50.948;6.956;2024-02-26T13:29:02;8.50;99.90
83650;DHT22;73612;50.948;6.956;2024-02-26T13:31:29;8.50;99.90
83650;DHT22;73612;50.948;6.956;2024-02-26T13:33:56;8.50;99.90
83650;DHT22;73612;50.948;6.956;2024-02-26T13:36:23;8.50;99.90
83650;DHT22;73612;50.948;6.956;2024-02-26T13:38:51;8.60;99.90
83650;DHT22;73612;50.948;6.956;2024-02-26T13:41:17;8.60;99.90
83650;DHT22;73612;50.948;6.956;2024-02-26T13:43:44;8.60;99.90
83650;DHT22;73612;50.948;6.956;2024-02-26T13:46:11;8.70;99.90
83650;DHT22;73612;50.948;6.956;2024-02-26T13:48:37;8.60;99.90
83650;DHT22;73612;50.948;6.956;2024-02-26T13:51:04;8.70;99.90
83650;DHT22;73612;50.948;6.956;2024-02-26T13:53:30;8.70;99.90
83650;DHT22;73612;50.948;6.956;2024-02-26T13:55:57;8.60;99.90
83650;DHT22;73612;50.948;6.956;2024-02-26T13:58:25;8.60;99.90
83650;DHT22;73612;50.948;6.956;2024-02-26T14:00:52;8.60;99.90
83650;DHT22;73612;50.948;6.956;2024-02-26T14:03:19;8.60;99.90
83650;DHT22;73612;50.948;6.956;2024-02-26T14:05:45;8.60;99.90
83650;DHT22;73612;50.948;6.956;2024-02-26T14:08:12;8.60;99.90
83650;DHT22;73612;50.948;6.956;2024-02-26T14:10:38;8.60;99.90
83650;DHT22;73612;50.948;6.956;2024-02-26T14:13:05;8.60;99.90
83650;DHT22;73612;50.948;6.956;2024-02-26T14:15:32;8.60;99.90
83650;DHT22;73612;50.948;6.956;2024-02-26T14:17:58;8.70;99.90
83650;DHT22;73612;50.948;6.956;2024-02-26T14:20:25;8.70;99.90
83650;DHT22;73612;50.948;6.956;2024-02-26T14:22:51;8.70;99.90
83650;DHT22;73612;50.948;6.956;2024-02-26T14:25:19;8.70;99.90
83650;DHT22;73612;50.948;6.956;2024-02-26T14:27:46;8.70;99.90
83650;DHT22;73612;50.948;6.956;2024-02-26T14:30:12;8.70;99.90
83650;DHT22;73612;50.948;6.956;2024-02-26T14:32:38;8.80;99.90
83650;DHT22;73612;50.948;6.956;2024-02-26T14:35:06;8.80;99.90
83650;DHT22;73612;50.948;6.956;2024-02-26T14:37:32;8.70;99.90
83650;DHT22;73612;50.948;6.956;2024-02-26T14:39:59;8.80;99.90
83650;DHT22;73612;50.948;6.956;2024-02-26T14:42:25;8.70;99.90
83650;DHT22;73612;50.948;6.956;2024-02-26T14:44:52;8.70;99.90
83650;DHT22;73612;50.948;6.956;2024-02-26T14:47:19;8.70;99.90
83650;DHT22;73612;50.948;6.956;2024-02-26T14:49:47;8.70;99.90
83650;DHT22;73612;50.948;6.956;2024-02-26T14:52:14;8.70;99.90
83650;DHT22;73612;50.948;6.956;2024-02-26T14:54:40;8.70;99.90
83650;DHT22;73612;50.948;6.956;2024-02-26T14:57:07;8.70;99.90
83650;DHT22;73612;50.948;6.956;2024-02-26T14:59:33;8.80;99.90
83650;DHT22;73612;50.948;6.956;2024-02-26T15:02:00;8.80;99.90
83650;DHT22;73612;50.948;6.956;2024-02-26T15:04:26;8.80;99.90
83650;DHT22;73612;50.948;6.956;2024-02-26T15:06:53;8.70;99.90
83650;DHT22;73612;50.948;6.956;2024-02-26T15:09:20;8.70;99.90
83650;DHT22;73612;50.948;6.956;2024-02-26T15:11:46;8.70;99.90
83650;DHT22;73612;50.948;6.956;2024-02-26T15:14:13;8.70;99.90
83650;DHT22;73612;50.948;6.956;2024-02-26T15:16:39;8.70;99.90
83650;DHT22;73612;50.948;6.956;2024-02-26T15:19:06;8.70;99.90
83650;DHT22;73612;50.948;6.956;2024-02-26T15:21:33;8.70;99.90
83650;DHT22;73612;50.948;6.956;2024-02-26T15:24:00;8.70;99.90
83650;DHT22;73612;50.948;6.956;2024-02-26T15:26:26;8.70;99.90
83650;DHT22;73612;50.948;6.956;2024-02-26T15:28:53;8.70;99.90
83650;DHT22;73612;50.948;6.956;2024-02-26T15:31:19;8.60;99.90
83650;DHT22;73612;50.948;6.956;2024-02-26T15:33:46;8.60;99.90
83650;DHT22;73612;50.948;6.956;2024-02-26T15:36:13;8.60;99.90
83650;DHT22;73612;50.948;6.956;2024-02-26T15:38:39;8.60;99.90
83650;DHT22;73612;50.948;6.956;2024-02-26T15:41:12;8.60;99.90
83650;DHT22;73612;50.948;6.956;2024-02-26T15:43:38;8.50;99.90
83650;DHT22;73612;50.948;6.956;2024-02-26T15:46:05;8.50;99.90
83650;DHT22;73612;50.948;6.956;2024-02-26T15:48:31;8.50;99.90
83650;DHT22;73612;50.948;6.956;2024-02-26T15:50:58;8.40;99.90
83650;DHT22;73612;50.948;6.956;2024-02-26T15:53:24;8.40;99.90
83650;DHT22;73612;50.948;6.956;2024-02-26T15:55:51;8.40;99.90